FIN1808 LICC-EFHK
Flight info
| Callsign | FIN1808 |
|---|---|
| Flight time | N/A |
| Altitude | 34000 |
| Route | BUDIN DCT AIOSA/N0452F350 DCT SOMUN DCT SMI DCT PARAK DCT KEKED DCT SUMAM M857 BULEP DCT BOKSU DCT INBOV DCT GUNTA M857 SOKVA DCT ANAMA DCT KEMET Q11 INTOR |
| Aircraft | A321/M-SDE3FGHIRWY/LB1 |
Departure
| Time | N/A |
|---|---|
| Airport | Catania-Fontanarossa Airport (LICC) |
Arrival
| Time | 2026-04-26 14:59 |
|---|---|
| Airport | Helsinki Vantaa Airport (EFHK) |
| Time | Latitude | Longitude | Altitude | Speed | Heading |
|---|---|---|---|---|---|
| 2026-04-26 13:47 | 52.84368 | 22.44636 | 34068 ft | 385 kts | 4° |
| 2026-04-26 13:48 | 52.86959 | 22.45675 | 34069 ft | 385 kts | 4° |
| 2026-04-26 13:48 | 52.92161 | 22.47773 | 34072 ft | 386 kts | 4° |
| 2026-04-26 13:49 | 52.97368 | 22.49879 | 34077 ft | 386 kts | 5° |
| 2026-04-26 13:49 | 53.02590 | 22.51997 | 34081 ft | 385 kts | 4° |
| 2026-04-26 13:50 | 53.07789 | 22.54110 | 34056 ft | 385 kts | 5° |
| 2026-04-26 13:50 | 53.12981 | 22.56222 | 34064 ft | 386 kts | 5° |
| 2026-04-26 13:51 | 53.18186 | 22.58346 | 34050 ft | 388 kts | 5° |
| 2026-04-26 13:51 | 53.23396 | 22.60479 | 34051 ft | 387 kts | 4° |
| 2026-04-26 13:52 | 53.28610 | 22.62624 | 34054 ft | 389 kts | 5° |
| 2026-04-26 13:52 | 53.33856 | 22.64778 | 34040 ft | 389 kts | 5° |
| 2026-04-26 13:53 | 53.39100 | 22.66971 | 34052 ft | 390 kts | 6° |
| 2026-04-26 13:53 | 53.44357 | 22.69168 | 34058 ft | 391 kts | 6° |
| 2026-04-26 13:54 | 53.49609 | 22.71354 | 34044 ft | 391 kts | 5° |
| 2026-04-26 13:54 | 53.54872 | 22.73550 | 34028 ft | 393 kts | 6° |
| 2026-04-26 13:55 | 53.61891 | 22.76479 | 34041 ft | 393 kts | 6° |
| 2026-04-26 13:56 | 53.70697 | 22.80171 | 34051 ft | 392 kts | 6° |
| 2026-04-26 13:56 | 53.75972 | 22.82390 | 34037 ft | 393 kts | 6° |
| 2026-04-26 13:57 | 53.81244 | 22.84613 | 34041 ft | 392 kts | 7° |
| 2026-04-26 13:57 | 53.86551 | 22.86861 | 34039 ft | 394 kts | 6° |
| 2026-04-26 13:58 | 53.91862 | 22.89111 | 34042 ft | 394 kts | 7° |
| 2026-04-26 13:58 | 53.97160 | 22.91370 | 34024 ft | 394 kts | 7° |
| 2026-04-26 13:59 | 54.02470 | 22.93635 | 34037 ft | 395 kts | 7° |
| 2026-04-26 13:59 | 54.07783 | 22.95913 | 34038 ft | 397 kts | 6° |
| 2026-04-26 14:00 | 54.18437 | 23.00490 | 34020 ft | 397 kts | 7° |
| 2026-04-26 14:01 | 54.23765 | 23.02795 | 34002 ft | 397 kts | 7° |
| 2026-04-26 14:01 | 54.29127 | 23.05108 | 33998 ft | 399 kts | 6° |
| 2026-04-26 14:02 | 54.34498 | 23.06917 | 34011 ft | 394 kts | 4° |
| 2026-04-26 14:02 | 54.39898 | 23.08536 | 33996 ft | 395 kts | 3° |
| 2026-04-26 14:03 | 54.45310 | 23.10159 | 33998 ft | 397 kts | 4° |
| 2026-04-26 14:03 | 54.50715 | 23.11794 | 34010 ft | 397 kts | 4° |
| 2026-04-26 14:04 | 54.56141 | 23.13452 | 33995 ft | 397 kts | 4° |
| 2026-04-26 14:04 | 54.61546 | 23.15100 | 34005 ft | 396 kts | 4° |
| 2026-04-26 14:05 | 54.66980 | 23.16767 | 33981 ft | 399 kts | 4° |
| 2026-04-26 14:05 | 54.72416 | 23.18436 | 33997 ft | 397 kts | 5° |
| 2026-04-26 14:06 | 54.77823 | 23.20111 | 33975 ft | 398 kts | 4° |
| 2026-04-26 14:06 | 54.83306 | 23.21806 | 33983 ft | 399 kts | 4° |
| 2026-04-26 14:07 | 54.88741 | 23.23490 | 33976 ft | 400 kts | 4° |
| 2026-04-26 14:07 | 54.94174 | 23.25180 | 33980 ft | 401 kts | 4° |
| 2026-04-26 14:08 | 54.99652 | 23.26887 | 33965 ft | 402 kts | 4° |
| 2026-04-26 14:08 | 55.05140 | 23.28602 | 33971 ft | 400 kts | 4° |
| 2026-04-26 14:09 | 55.10611 | 23.30325 | 33972 ft | 402 kts | 5° |
| 2026-04-26 14:09 | 55.16069 | 23.32044 | 33959 ft | 402 kts | 4° |
| 2026-04-26 14:10 | 55.21561 | 23.33773 | 33963 ft | 402 kts | 4° |
| 2026-04-26 14:10 | 55.27081 | 23.35523 | 33946 ft | 403 kts | 5° |
| 2026-04-26 14:11 | 55.35339 | 23.38165 | 33953 ft | 403 kts | 5° |
| 2026-04-26 14:11 | 55.40825 | 23.39927 | 33948 ft | 403 kts | 5° |
| 2026-04-26 14:12 | 55.46333 | 23.41736 | 33943 ft | 406 kts | 5° |
| 2026-04-26 14:12 | 55.51849 | 23.43704 | 33943 ft | 405 kts | 6° |
| 2026-04-26 14:13 | 55.60133 | 23.46720 | 33956 ft | 405 kts | 6° |
| 2026-04-26 14:14 | 55.65610 | 23.48715 | 33935 ft | 404 kts | 6° |
| 2026-04-26 14:14 | 55.71108 | 23.50727 | 33948 ft | 406 kts | 6° |
| 2026-04-26 14:15 | 55.76648 | 23.52763 | 33939 ft | 406 kts | 6° |
| 2026-04-26 14:15 | 55.82177 | 23.54800 | 33940 ft | 407 kts | 6° |
| 2026-04-26 14:16 | 55.87693 | 23.56837 | 33927 ft | 408 kts | 7° |
| 2026-04-26 14:16 | 55.93219 | 23.58883 | 33939 ft | 409 kts | 6° |
| 2026-04-26 14:17 | 55.98748 | 23.60938 | 33940 ft | 407 kts | 7° |
| 2026-04-26 14:17 | 56.04298 | 23.63012 | 33932 ft | 408 kts | 7° |
| 2026-04-26 14:18 | 56.09819 | 23.65078 | 33940 ft | 410 kts | 7° |
| 2026-04-26 14:18 | 56.15383 | 23.67193 | 33942 ft | 411 kts | 7° |
| 2026-04-26 14:19 | 56.20967 | 23.69310 | 33930 ft | 411 kts | 7° |
| 2026-04-26 14:19 | 56.26514 | 23.71416 | 33925 ft | 410 kts | 8° |
| 2026-04-26 14:20 | 56.32089 | 23.73544 | 33934 ft | 411 kts | 8° |
| 2026-04-26 14:20 | 56.37671 | 23.75661 | 33930 ft | 412 kts | 8° |
| 2026-04-26 14:21 | 56.43269 | 23.77858 | 33923 ft | 412 kts | 8° |
| 2026-04-26 14:21 | 56.48856 | 23.80090 | 33926 ft | 412 kts | 8° |
| 2026-04-26 14:22 | 56.54433 | 23.82329 | 33929 ft | 413 kts | 8° |
| 2026-04-26 14:22 | 56.60020 | 23.84561 | 33916 ft | 413 kts | 7° |
| 2026-04-26 14:23 | 56.65640 | 23.86601 | 33920 ft | 414 kts | 7° |
| 2026-04-26 14:23 | 56.71242 | 23.88643 | 33911 ft | 414 kts | 7° |
| 2026-04-26 14:24 | 56.76888 | 23.90732 | 33924 ft | 414 kts | 7° |
| 2026-04-26 14:24 | 56.82511 | 23.92829 | 33916 ft | 415 kts | 7° |
| 2026-04-26 14:25 | 56.88144 | 23.94941 | 33923 ft | 417 kts | 7° |
| 2026-04-26 14:25 | 56.93800 | 23.97020 | 33924 ft | 415 kts | 6° |
| 2026-04-26 14:26 | 56.99482 | 23.98866 | 33907 ft | 415 kts | 6° |
| 2026-04-26 14:26 | 57.05129 | 24.00718 | 33914 ft | 415 kts | 6° |
| 2026-04-26 14:27 | 57.10784 | 24.02605 | 33912 ft | 416 kts | 6° |
| 2026-04-26 14:27 | 57.16473 | 24.04510 | 33906 ft | 417 kts | 6° |
| 2026-04-26 14:28 | 57.22139 | 24.06419 | 33907 ft | 416 kts | 6° |
| 2026-04-26 14:28 | 57.27847 | 24.08358 | 33897 ft | 417 kts | 6° |
| 2026-04-26 14:29 | 57.33506 | 24.10291 | 33890 ft | 417 kts | 7° |
| 2026-04-26 14:29 | 57.39200 | 24.12247 | 33892 ft | 418 kts | 6° |
| 2026-04-26 14:30 | 57.44910 | 24.14193 | 33873 ft | 418 kts | 6° |
| 2026-04-26 14:30 | 57.50605 | 24.16113 | 33884 ft | 417 kts | 6° |
| 2026-04-26 14:31 | 57.56291 | 24.18049 | 33881 ft | 418 kts | 6° |
| 2026-04-26 14:31 | 57.68632 | 24.22315 | 33873 ft | 418 kts | 7° |
| 2026-04-26 14:32 | 58.60209 | 24.54292 | 33898 ft | 421 kts | 7° |
| 2026-04-26 14:32 | 58.68329 | 24.57208 | 33821 ft | 423 kts | 7° |
| 2026-04-26 14:32 | 58.71228 | 24.58241 | 33676 ft | 424 kts | 7° |
| 2026-04-26 14:33 | 58.74091 | 24.59249 | 33453 ft | 422 kts | 7° |
| 2026-04-26 14:33 | 58.76985 | 24.60263 | 33234 ft | 420 kts | 7° |
| 2026-04-26 14:33 | 58.79845 | 24.61276 | 33039 ft | 417 kts | 7° |
| 2026-04-26 14:33 | 58.82655 | 24.62281 | 32852 ft | 415 kts | 7° |
| 2026-04-26 14:34 | 58.85483 | 24.63304 | 32663 ft | 412 kts | 7° |
| 2026-04-26 14:34 | 58.88287 | 24.64322 | 32410 ft | 411 kts | 6° |
| 2026-04-26 14:34 | 58.91089 | 24.65338 | 31828 ft | 413 kts | 7° |
| 2026-04-26 14:34 | 58.93905 | 24.66366 | 31065 ft | 418 kts | 7° |
| 2026-04-26 14:35 | 58.96752 | 24.67386 | 30368 ft | 420 kts | 7° |
| 2026-04-26 14:35 | 58.99586 | 24.68404 | 29742 ft | 419 kts | 7° |
| 2026-04-26 14:35 | 59.02449 | 24.69436 | 29040 ft | 420 kts | 7° |
| 2026-04-26 14:35 | 59.05273 | 24.70459 | 28260 ft | 422 kts | 8° |
| 2026-04-26 14:36 | 59.08176 | 24.71514 | 27509 ft | 423 kts | 8° |
| 2026-04-26 14:36 | 59.11031 | 24.72559 | 26817 ft | 422 kts | 8° |
| 2026-04-26 14:36 | 59.13898 | 24.73609 | 26185 ft | 420 kts | 8° |
| 2026-04-26 14:36 | 59.16742 | 24.74652 | 25536 ft | 418 kts | 8° |
| 2026-04-26 14:37 | 59.19600 | 24.75704 | 24811 ft | 416 kts | 9° |
| 2026-04-26 14:37 | 59.22419 | 24.76748 | 24100 ft | 413 kts | 9° |
| 2026-04-26 14:37 | 59.25169 | 24.77772 | 23432 ft | 409 kts | 9° |
| 2026-04-26 14:37 | 59.27952 | 24.78809 | 22700 ft | 407 kts | 9° |
| 2026-04-26 14:38 | 59.30708 | 24.79837 | 21965 ft | 405 kts | 9° |
| 2026-04-26 14:38 | 59.33453 | 24.80861 | 21243 ft | 403 kts | 9° |
| 2026-04-26 14:38 | 59.36192 | 24.81882 | 20589 ft | 400 kts | 9° |
| 2026-04-26 14:38 | 59.38890 | 24.82946 | 19916 ft | 398 kts | 12° |
| 2026-04-26 14:39 | 59.41547 | 24.84344 | 19185 ft | 398 kts | 16° |
| 2026-04-26 14:39 | 59.44116 | 24.86117 | 18551 ft | 395 kts | 20° |
| 2026-04-26 14:39 | 59.46634 | 24.88161 | 17993 ft | 391 kts | 21° |
| 2026-04-26 14:39 | 59.49112 | 24.90252 | 17484 ft | 385 kts | 21° |
| 2026-04-26 14:40 | 59.51539 | 24.92297 | 16994 ft | 379 kts | 21° |
| 2026-04-26 14:40 | 59.53946 | 24.94309 | 16505 ft | 373 kts | 21° |
| 2026-04-26 14:40 | 59.56305 | 24.96263 | 16006 ft | 369 kts | 21° |
| 2026-04-26 14:40 | 59.58653 | 24.98212 | 15513 ft | 364 kts | 21° |
| 2026-04-26 14:41 | 59.60973 | 25.00146 | 15045 ft | 359 kts | 21° |
| 2026-04-26 14:41 | 59.63264 | 25.02061 | 14582 ft | 355 kts | 21° |
| 2026-04-26 14:41 | 59.65509 | 25.03944 | 14111 ft | 351 kts | 21° |
| 2026-04-26 14:41 | 59.67709 | 25.05797 | 13672 ft | 347 kts | 21° |
| 2026-04-26 14:42 | 59.69914 | 25.07656 | 13241 ft | 342 kts | 21° |
| 2026-04-26 14:42 | 59.72066 | 25.09475 | 12824 ft | 334 kts | 20° |
| 2026-04-26 14:42 | 59.74140 | 25.11233 | 12285 ft | 316 kts | 20° |
| 2026-04-26 14:42 | 59.76088 | 25.12891 | 11996 ft | 293 kts | 20° |
| 2026-04-26 14:43 | 59.77893 | 25.14427 | 11665 ft | 274 kts | 20° |
| 2026-04-26 14:43 | 59.79596 | 25.15873 | 11322 ft | 264 kts | 20° |
| 2026-04-26 14:43 | 59.81271 | 25.17290 | 11000 ft | 262 kts | 19° |
| 2026-04-26 14:43 | 59.82918 | 25.18684 | 10828 ft | 258 kts | 19° |
| 2026-04-26 14:44 | 59.84589 | 25.20100 | 10784 ft | 258 kts | 19° |
| 2026-04-26 14:44 | 59.86235 | 25.21497 | 10760 ft | 258 kts | 19° |
| 2026-04-26 14:44 | 59.87864 | 25.22881 | 10732 ft | 257 kts | 19° |
| 2026-04-26 14:44 | 59.89507 | 25.24280 | 10701 ft | 257 kts | 19° |
| 2026-04-26 14:45 | 59.91123 | 25.25721 | 10669 ft | 259 kts | 25° |
| 2026-04-26 14:45 | 59.92097 | 25.27189 | 10423 ft | 266 kts | 41° |
| 2026-04-26 14:45 | 59.93608 | 25.31115 | 9910 ft | 269 kts | 49° |
| 2026-04-26 14:45 | 59.94650 | 25.34190 | 9509 ft | 270 kts | 50° |
| 2026-04-26 14:46 | 59.95683 | 25.37294 | 9110 ft | 269 kts | 50° |
| 2026-04-26 14:46 | 59.96709 | 25.40416 | 8708 ft | 269 kts | 50° |
| 2026-04-26 14:46 | 59.97704 | 25.43482 | 8317 ft | 266 kts | 50° |
| 2026-04-26 14:46 | 59.98696 | 25.46578 | 7921 ft | 264 kts | 50° |
| 2026-04-26 14:47 | 59.99667 | 25.49637 | 7529 ft | 261 kts | 50° |
| 2026-04-26 14:47 | 60.00630 | 25.52706 | 7131 ft | 259 kts | 50° |
| 2026-04-26 14:47 | 60.01564 | 25.55713 | 6742 ft | 256 kts | 50° |
| 2026-04-26 14:47 | 60.02499 | 25.58759 | 6345 ft | 254 kts | 50° |
| 2026-04-26 14:48 | 60.03415 | 25.61748 | 5952 ft | 251 kts | 49° |
| 2026-04-26 14:48 | 60.04555 | 25.64200 | 5542 ft | 236 kts | 25° |
| 2026-04-26 14:48 | 60.06065 | 25.65076 | 5139 ft | 225 kts | 357° |
| 2026-04-26 14:48 | 60.07515 | 25.64226 | 4956 ft | 215 kts | 335° |
| 2026-04-26 14:49 | 60.08747 | 25.62766 | 4943 ft | 200 kts | 331° |
| 2026-04-26 14:49 | 60.09890 | 25.61276 | 4946 ft | 195 kts | 331° |
| 2026-04-26 14:49 | 60.10997 | 25.59676 | 4942 ft | 199 kts | 320° |
| 2026-04-26 14:49 | 60.11676 | 25.57174 | 4633 ft | 218 kts | 289° |
| 2026-04-26 14:50 | 60.11685 | 25.54061 | 4333 ft | 228 kts | 274° |
| 2026-04-26 14:50 | 60.11486 | 25.50920 | 4066 ft | 229 kts | 271° |
| 2026-04-26 14:50 | 60.11253 | 25.47774 | 3803 ft | 227 kts | 271° |
| 2026-04-26 14:50 | 60.11017 | 25.44682 | 3659 ft | 223 kts | 271° |
| 2026-04-26 14:51 | 60.10783 | 25.41622 | 3530 ft | 223 kts | 271° |
| 2026-04-26 14:51 | 60.10549 | 25.38572 | 3403 ft | 223 kts | 271° |
| 2026-04-26 14:51 | 60.10315 | 25.35529 | 3271 ft | 222 kts | 271° |
| 2026-04-26 14:51 | 60.10081 | 25.32443 | 3140 ft | 222 kts | 270° |
| 2026-04-26 14:52 | 60.09855 | 25.29384 | 3012 ft | 222 kts | 270° |
| 2026-04-26 14:52 | 60.09633 | 25.26352 | 2965 ft | 221 kts | 271° |
| 2026-04-26 14:52 | 60.09681 | 25.23395 | 2936 ft | 206 kts | 297° |
| 2026-04-26 14:52 | 60.10443 | 25.21135 | 2948 ft | 193 kts | 325° |
| 2026-04-26 14:53 | 60.11546 | 25.19647 | 2964 ft | 192 kts | 330° |
| 2026-04-26 14:53 | 60.12661 | 25.18188 | 2961 ft | 192 kts | 330° |
| 2026-04-26 14:53 | 60.13773 | 25.16718 | 2959 ft | 191 kts | 330° |
| 2026-04-26 14:53 | 60.14893 | 25.15236 | 2960 ft | 192 kts | 329° |
| 2026-04-26 14:54 | 60.16024 | 25.13814 | 2958 ft | 191 kts | 333° |
| 2026-04-26 14:54 | 60.17151 | 25.12624 | 2943 ft | 180 kts | 335° |
| 2026-04-26 14:54 | 60.18248 | 25.11503 | 2795 ft | 175 kts | 335° |
| 2026-04-26 14:54 | 60.19316 | 25.10419 | 2731 ft | 166 kts | 335° |
| 2026-04-26 14:55 | 60.20298 | 25.09417 | 2735 ft | 153 kts | 335° |
| 2026-04-26 14:55 | 60.21242 | 25.08462 | 2580 ft | 152 kts | 335° |
| 2026-04-26 14:55 | 60.22169 | 25.07521 | 2432 ft | 145 kts | 336° |
| 2026-04-26 14:55 | 60.23015 | 25.06659 | 2257 ft | 129 kts | 336° |
| 2026-04-26 14:56 | 60.23792 | 25.05870 | 1971 ft | 123 kts | 336° |
| 2026-04-26 14:56 | 60.24543 | 25.05110 | 1754 ft | 120 kts | 336° |
| 2026-04-26 14:56 | 60.25291 | 25.04355 | 1555 ft | 120 kts | 335° |
| 2026-04-26 14:56 | 60.26038 | 25.03598 | 1365 ft | 119 kts | 335° |
| 2026-04-26 14:57 | 60.26771 | 25.02852 | 1189 ft | 119 kts | 335° |
| 2026-04-26 14:57 | 60.27507 | 25.02106 | 1007 ft | 118 kts | 335° |
| 2026-04-26 14:57 | 60.28238 | 25.01357 | 830 ft | 118 kts | 334° |
| 2026-04-26 14:57 | 60.28972 | 25.00599 | 645 ft | 117 kts | 334° |
| 2026-04-26 14:58 | 60.29702 | 24.99859 | 482 ft | 117 kts | 334° |
| 2026-04-26 14:58 | 60.30428 | 24.99119 | 311 ft | 117 kts | 333° |
| 2026-04-26 14:58 | 60.31150 | 24.98376 | 191 ft | 111 kts | 333° |
| 2026-04-26 14:58 | 60.31688 | 24.97831 | 190 ft | 62 kts | 331° |
| 2026-04-26 14:59 | 60.31965 | 24.97533 | 190 ft | 39 kts | 333° |
| 2026-04-26 14:59 | 60.32157 | 24.97341 | 190 ft | 25 kts | 334° |
| 2026-04-26 14:59 | 60.32305 | 24.97193 | 190 ft | 22 kts | 333° |
| 2026-04-26 14:59 | 60.32374 | 24.97115 | 190 ft | 15 kts | 315° |
| 2026-04-26 15:00 | 60.32373 | 24.96945 | 190 ft | 0 kts | 233° |
| 2026-04-26 15:01 | 60.32372 | 24.96943 | 190 ft | 1 kts | 233° |
| 2026-04-26 15:01 | 60.32353 | 24.96895 | 190 ft | 9 kts | 229° |
| 2026-04-26 15:02 | 60.32291 | 24.96755 | 190 ft | 14 kts | 226° |
| 2026-04-26 15:02 | 60.32225 | 24.96608 | 190 ft | 13 kts | 228° |
| 2026-04-26 15:02 | 60.32179 | 24.96511 | 190 ft | 3 kts | 225° |
| 2026-04-26 15:02 | 60.32177 | 24.96506 | 190 ft | 0 kts | 228° |
| 2026-04-26 15:03 | 60.32165 | 24.96480 | 190 ft | 11 kts | 228° |
| 2026-04-26 15:04 | 60.32096 | 24.96320 | 190 ft | 15 kts | 229° |
| 2026-04-26 15:04 | 60.32026 | 24.96170 | 190 ft | 14 kts | 225° |
| 2026-04-26 15:04 | 60.31958 | 24.96042 | 190 ft | 12 kts | 204° |
| 2026-04-26 15:04 | 60.31878 | 24.96109 | 190 ft | 13 kts | 141° |
| 2026-04-26 15:05 | 60.31852 | 24.96258 | 190 ft | 11 kts | 99° |
| 2026-04-26 15:05 | 60.31831 | 24.96335 | 190 ft | 6 kts | 136° |
| 2026-04-26 15:05 | 60.31805 | 24.96383 | 190 ft | 0 kts | 137° |